sensor_id;sensor_type;location;lat;lon;timestamp;P1;durP1;ratioP1;P2;durP2;ratioP2
2019;SDS011;1014;51.960;8.542;2023-07-09T00:01:28;28.10;;;26.10;;
2019;SDS011;1014;51.960;8.542;2023-07-09T00:03:56;29.17;;;27.17;;
2019;SDS011;1014;51.960;8.542;2023-07-09T00:06:23;27.63;;;25.93;;
2019;SDS011;1014;51.960;8.542;2023-07-09T00:08:58;28.77;;;26.97;;
2019;SDS011;1014;51.960;8.542;2023-07-09T00:11:25;27.30;;;25.50;;
2019;SDS011;1014;51.960;8.542;2023-07-09T00:13:52;29.30;;;27.40;;
2019;SDS011;1014;51.960;8.542;2023-07-09T00:16:21;26.77;;;25.10;;
2019;SDS011;1014;51.960;8.542;2023-07-09T00:18:49;27.43;;;25.40;;
2019;SDS011;1014;51.960;8.542;2023-07-09T00:21:18;28.10;;;26.30;;
2019;SDS011;1014;51.960;8.542;2023-07-09T00:23:46;26.90;;;25.20;;
2019;SDS011;1014;51.960;8.542;2023-07-09T00:26:14;27.30;;;25.60;;
2019;SDS011;1014;51.960;8.542;2023-07-09T00:28:42;27.10;;;25.40;;
2019;SDS011;1014;51.960;8.542;2023-07-09T00:31:09;27.47;;;25.87;;
2019;SDS011;1014;51.960;8.542;2023-07-09T00:33:38;27.80;;;26.00;;
2019;SDS011;1014;51.960;8.542;2023-07-09T00:36:07;26.97;;;25.27;;
2019;SDS011;1014;51.960;8.542;2023-07-09T00:38:40;27.10;;;25.30;;
2019;SDS011;1014;51.960;8.542;2023-07-09T00:41:14;25.67;;;24.07;;
2019;SDS011;1014;51.960;8.542;2023-07-09T00:43:42;27.37;;;25.70;;
2019;SDS011;1014;51.960;8.542;2023-07-09T00:46:16;26.50;;;24.90;;
2019;SDS011;1014;51.960;8.542;2023-07-09T00:49:04;27.47;;;25.40;;
2019;SDS011;1014;51.960;8.542;2023-07-09T00:51:31;27.40;;;25.40;;
2019;SDS011;1014;51.960;8.542;2023-07-09T00:54:03;27.20;;;25.60;;
2019;SDS011;1014;51.960;8.542;2023-07-09T00:56:36;27.53;;;25.60;;
2019;SDS011;1014;51.960;8.542;2023-07-09T00:59:09;26.73;;;25.13;;
2019;SDS011;1014;51.960;8.542;2023-07-09T01:01:37;26.03;;;24.43;;
2019;SDS011;1014;51.960;8.542;2023-07-09T01:04:05;27.37;;;25.67;;
2019;SDS011;1014;51.960;8.542;2023-07-09T01:06:34;27.60;;;25.80;;
2019;SDS011;1014;51.960;8.542;2023-07-09T01:09:04;28.33;;;26.30;;
2019;SDS011;1014;51.960;8.542;2023-07-09T01:11:32;28.07;;;26.10;;
2019;SDS011;1014;51.960;8.542;2023-07-09T01:14:00;27.00;;;25.17;;
2019;SDS011;1014;51.960;8.542;2023-07-09T01:16:28;26.30;;;24.70;;
2019;SDS011;1014;51.960;8.542;2023-07-09T01:18:56;28.07;;;26.03;;
2019;SDS011;1014;51.960;8.542;2023-07-09T01:21:24;27.10;;;25.50;;
2019;SDS011;1014;51.960;8.542;2023-07-09T01:23:52;27.60;;;25.90;;
2019;SDS011;1014;51.960;8.542;2023-07-09T01:26:20;27.00;;;25.30;;
2019;SDS011;1014;51.960;8.542;2023-07-09T01:28:50;27.63;;;25.93;;
2019;SDS011;1014;51.960;8.542;2023-07-09T01:31:17;27.23;;;25.50;;
2019;SDS011;1014;51.960;8.542;2023-07-09T01:33:45;26.73;;;25.00;;
2019;SDS011;1014;51.960;8.542;2023-07-09T01:36:14;27.60;;;25.80;;
2019;SDS011;1014;51.960;8.542;2023-07-09T01:38:43;27.33;;;25.73;;
2019;SDS011;1014;51.960;8.542;2023-07-09T01:41:10;25.97;;;24.37;;
2019;SDS011;1014;51.960;8.542;2023-07-09T01:43:38;26.17;;;24.60;;
2019;SDS011;1014;51.960;8.542;2023-07-09T01:46:06;25.77;;;24.17;;
2019;SDS011;1014;51.960;8.542;2023-07-09T01:48:33;26.33;;;24.73;;
2019;SDS011;1014;51.960;8.542;2023-07-09T01:51:06;26.00;;;24.50;;
2019;SDS011;1014;51.960;8.542;2023-07-09T01:53:33;27.10;;;25.40;;
2019;SDS011;1014;51.960;8.542;2023-07-09T01:56:02;26.53;;;24.80;;
2019;SDS011;1014;51.960;8.542;2023-07-09T01:58:29;26.73;;;24.93;;
2019;SDS011;1014;51.960;8.542;2023-07-09T02:00:56;25.80;;;24.10;;
2019;SDS011;1014;51.960;8.542;2023-07-09T02:03:23;26.73;;;25.03;;
2019;SDS011;1014;51.960;8.542;2023-07-09T02:05:51;26.53;;;24.43;;
2019;SDS011;1014;51.960;8.542;2023-07-09T02:08:19;26.23;;;24.63;;
2019;SDS011;1014;51.960;8.542;2023-07-09T02:10:47;27.17;;;25.40;;
2019;SDS011;1014;51.960;8.542;2023-07-09T02:13:16;26.40;;;24.70;;
2019;SDS011;1014;51.960;8.542;2023-07-09T02:15:43;24.50;;;23.07;;
2019;SDS011;1014;51.960;8.542;2023-07-09T02:18:10;27.50;;;25.50;;
2019;SDS011;1014;51.960;8.542;2023-07-09T02:20:37;25.70;;;24.00;;
2019;SDS011;1014;51.960;8.542;2023-07-09T02:23:07;26.10;;;24.40;;
2019;SDS011;1014;51.960;8.542;2023-07-09T02:25:34;25.30;;;23.70;;
2019;SDS011;1014;51.960;8.542;2023-07-09T02:28:02;26.50;;;24.80;;
2019;SDS011;1014;51.960;8.542;2023-07-09T02:30:30;24.70;;;23.20;;
2019;SDS011;1014;51.960;8.542;2023-07-09T02:32:57;25.83;;;24.13;;
2019;SDS011;1014;51.960;8.542;2023-07-09T02:35:24;25.07;;;23.57;;
2019;SDS011;1014;51.960;8.542;2023-07-09T02:37:51;25.70;;;24.10;;
2019;SDS011;1014;51.960;8.542;2023-07-09T02:40:18;25.27;;;23.67;;
2019;SDS011;1014;51.960;8.542;2023-07-09T02:42:45;26.63;;;24.77;;
2019;SDS011;1014;51.960;8.542;2023-07-09T02:45:12;25.70;;;24.10;;
2019;SDS011;1014;51.960;8.542;2023-07-09T02:47:40;26.57;;;24.87;;
2019;SDS011;1014;51.960;8.542;2023-07-09T02:50:08;26.60;;;25.00;;
2019;SDS011;1014;51.960;8.542;2023-07-09T02:52:35;26.20;;;24.60;;
2019;SDS011;1014;51.960;8.542;2023-07-09T02:55:02;25.60;;;23.73;;
2019;SDS011;1014;51.960;8.542;2023-07-09T02:57:29;26.10;;;24.60;;
2019;SDS011;1014;51.960;8.542;2023-07-09T02:59:56;26.13;;;24.63;;
2019;SDS011;1014;51.960;8.542;2023-07-09T03:02:23;25.97;;;24.47;;
2019;SDS011;1014;51.960;8.542;2023-07-09T03:04:52;25.47;;;24.00;;
2019;SDS011;1014;51.960;8.542;2023-07-09T03:07:19;26.30;;;24.70;;
2019;SDS011;1014;51.960;8.542;2023-07-09T03:09:46;27.90;;;25.90;;
2019;SDS011;1014;51.960;8.542;2023-07-09T03:12:13;26.70;;;25.10;;
2019;SDS011;1014;51.960;8.542;2023-07-09T03:14:40;25.77;;;24.27;;
2019;SDS011;1014;51.960;8.542;2023-07-09T03:17:07;26.67;;;25.07;;
2019;SDS011;1014;51.960;8.542;2023-07-09T03:19:34;26.80;;;25.10;;
2019;SDS011;1014;51.960;8.542;2023-07-09T03:22:02;26.87;;;25.07;;
2019;SDS011;1014;51.960;8.542;2023-07-09T03:24:29;26.97;;;25.10;;
2019;SDS011;1014;51.960;8.542;2023-07-09T03:26:56;26.17;;;24.50;;
2019;SDS011;1014;51.960;8.542;2023-07-09T03:29:23;27.20;;;25.50;;
2019;SDS011;1014;51.960;8.542;2023-07-09T03:31:50;26.30;;;24.60;;
2019;SDS011;1014;51.960;8.542;2023-07-09T03:34:17;26.20;;;24.40;;
2019;SDS011;1014;51.960;8.542;2023-07-09T03:36:44;26.87;;;25.17;;
2019;SDS011;1014;51.960;8.542;2023-07-09T03:39:13;26.60;;;24.80;;
2019;SDS011;1014;51.960;8.542;2023-07-09T03:41:40;27.30;;;25.40;;
2019;SDS011;1014;51.960;8.542;2023-07-09T03:44:07;26.17;;;24.50;;
2019;SDS011;1014;51.960;8.542;2023-07-09T03:46:34;27.17;;;25.27;;
2019;SDS011;1014;51.960;8.542;2023-07-09T03:49:01;28.17;;;26.27;;
2019;SDS011;1014;51.960;8.542;2023-07-09T03:51:28;27.93;;;26.00;;
2019;SDS011;1014;51.960;8.542;2023-07-09T03:53:55;28.70;;;26.80;;
2019;SDS011;1014;51.960;8.542;2023-07-09T03:56:23;27.60;;;25.90;;
2019;SDS011;1014;51.960;8.542;2023-07-09T03:58:50;26.57;;;24.87;;
2019;SDS011;1014;51.960;8.542;2023-07-09T04:01:17;25.70;;;24.17;;
2019;SDS011;1014;51.960;8.542;2023-07-09T04:03:44;26.97;;;25.23;;
2019;SDS011;1014;51.960;8.542;2023-07-09T04:06:11;26.80;;;25.10;;
2019;SDS011;1014;51.960;8.542;2023-07-09T04:08:38;26.67;;;24.90;;
2019;SDS011;1014;51.960;8.542;2023-07-09T04:11:05;28.10;;;26.30;;
2019;SDS011;1014;51.960;8.542;2023-07-09T04:13:34;26.43;;;24.77;;
2019;SDS011;1014;51.960;8.542;2023-07-09T04:16:00;27.57;;;25.73;;
2019;SDS011;1014;51.960;8.542;2023-07-09T04:18:28;28.00;;;26.40;;
2019;SDS011;1014;51.960;8.542;2023-07-09T04:20:55;28.07;;;25.97;;
2019;SDS011;1014;51.960;8.542;2023-07-09T04:23:22;27.67;;;25.67;;
2019;SDS011;1014;51.960;8.542;2023-07-09T04:25:49;27.67;;;25.87;;
2019;SDS011;1014;51.960;8.542;2023-07-09T04:28:16;28.33;;;26.63;;
2019;SDS011;1014;51.960;8.542;2023-07-09T04:30:47;27.33;;;25.63;;
2019;SDS011;1014;51.960;8.542;2023-07-09T04:33:15;27.20;;;25.50;;
2019;SDS011;1014;51.960;8.542;2023-07-09T04:35:43;26.60;;;24.80;;
2019;SDS011;1014;51.960;8.542;2023-07-09T04:38:10;26.90;;;25.20;;
2019;SDS011;1014;51.960;8.542;2023-07-09T04:40:37;26.00;;;24.47;;
2019;SDS011;1014;51.960;8.542;2023-07-09T04:43:04;26.57;;;24.80;;
2019;SDS011;1014;51.960;8.542;2023-07-09T04:45:31;27.50;;;25.70;;
2019;SDS011;1014;51.960;8.542;2023-07-09T04:48:00;26.67;;;24.77;;
2019;SDS011;1014;51.960;8.542;2023-07-09T04:50:27;27.83;;;26.00;;
2019;SDS011;1014;51.960;8.542;2023-07-09T04:52:54;26.83;;;25.23;;
2019;SDS011;1014;51.960;8.542;2023-07-09T04:55:20;26.37;;;24.67;;
2019;SDS011;1014;51.960;8.542;2023-07-09T04:57:47;26.13;;;24.53;;
2019;SDS011;1014;51.960;8.542;2023-07-09T05:00:15;26.70;;;25.10;;
2019;SDS011;1014;51.960;8.542;2023-07-09T05:02:42;26.20;;;24.47;;
2019;SDS011;1014;51.960;8.542;2023-07-09T05:05:10;26.93;;;25.00;;
2019;SDS011;1014;51.960;8.542;2023-07-09T05:07:37;27.20;;;25.30;;
2019;SDS011;1014;51.960;8.542;2023-07-09T05:10:05;27.47;;;25.67;;
2019;SDS011;1014;51.960;8.542;2023-07-09T05:12:32;27.90;;;26.10;;
2019;SDS011;1014;51.960;8.542;2023-07-09T05:14:59;26.03;;;24.43;;
2019;SDS011;1014;51.960;8.542;2023-07-09T05:17:26;26.70;;;25.00;;
2019;SDS011;1014;51.960;8.542;2023-07-09T05:19:53;28.33;;;25.93;;
2019;SDS011;1014;51.960;8.542;2023-07-09T05:22:21;26.53;;;24.63;;
2019;SDS011;1014;51.960;8.542;2023-07-09T05:24:48;26.27;;;24.60;;
2019;SDS011;1014;51.960;8.542;2023-07-09T05:27:15;27.77;;;25.80;;
2019;SDS011;1014;51.960;8.542;2023-07-09T05:29:42;26.37;;;24.57;;
2019;SDS011;1014;51.960;8.542;2023-07-09T05:32:09;27.10;;;25.10;;
2019;SDS011;1014;51.960;8.542;2023-07-09T05:34:36;26.23;;;24.53;;
2019;SDS011;1014;51.960;8.542;2023-07-09T05:37:03;27.17;;;25.47;;
2019;SDS011;1014;51.960;8.542;2023-07-09T05:39:32;25.67;;;23.87;;
2019;SDS011;1014;51.960;8.542;2023-07-09T05:41:59;25.10;;;23.60;;
2019;SDS011;1014;51.960;8.542;2023-07-09T05:44:26;26.30;;;24.70;;
2019;SDS011;1014;51.960;8.542;2023-07-09T05:46:53;24.80;;;23.30;;
2019;SDS011;1014;51.960;8.542;2023-07-09T05:49:20;26.40;;;24.53;;
2019;SDS011;1014;51.960;8.542;2023-07-09T05:51:47;25.97;;;24.27;;
2019;SDS011;1014;51.960;8.542;2023-07-09T05:54:14;26.10;;;24.20;;
2019;SDS011;1014;51.960;8.542;2023-07-09T05:56:42;26.10;;;24.50;;
2019;SDS011;1014;51.960;8.542;2023-07-09T05:59:09;25.37;;;23.70;;
2019;SDS011;1014;51.960;8.542;2023-07-09T06:01:36;25.70;;;24.00;;
2019;SDS011;1014;51.960;8.542;2023-07-09T06:04:03;25.60;;;24.00;;
2019;SDS011;1014;51.960;8.542;2023-07-09T06:06:31;26.20;;;24.50;;
2019;SDS011;1014;51.960;8.542;2023-07-09T06:08:58;26.77;;;25.07;;
2019;SDS011;1014;51.960;8.542;2023-07-09T06:11:25;26.43;;;24.73;;
2019;SDS011;1014;51.960;8.542;2023-07-09T06:13:53;26.97;;;25.27;;
2019;SDS011;1014;51.960;8.542;2023-07-09T06:16:20;26.00;;;24.40;;
2019;SDS011;1014;51.960;8.542;2023-07-09T06:18:47;27.37;;;25.57;;
2019;SDS011;1014;51.960;8.542;2023-07-09T06:21:14;27.40;;;25.57;;
2019;SDS011;1014;51.960;8.542;2023-07-09T06:23:41;26.37;;;24.67;;
2019;SDS011;1014;51.960;8.542;2023-07-09T06:26:08;26.70;;;25.10;;
2019;SDS011;1014;51.960;8.542;2023-07-09T06:28:35;27.20;;;25.50;;
2019;SDS011;1014;51.960;8.542;2023-07-09T06:31:04;28.33;;;26.60;;
2019;SDS011;1014;51.960;8.542;2023-07-09T06:33:31;26.87;;;25.17;;
2019;SDS011;1014;51.960;8.542;2023-07-09T06:35:58;28.73;;;26.73;;
2019;SDS011;1014;51.960;8.542;2023-07-09T06:38:25;29.33;;;26.93;;
2019;SDS011;1014;51.960;8.542;2023-07-09T06:40:53;29.10;;;27.00;;
2019;SDS011;1014;51.960;8.542;2023-07-09T06:43:20;27.43;;;25.63;;
2019;SDS011;1014;51.960;8.542;2023-07-09T06:45:47;26.10;;;24.50;;
2019;SDS011;1014;51.960;8.542;2023-07-09T06:48:16;27.97;;;26.07;;
2019;SDS011;1014;51.960;8.542;2023-07-09T06:50:43;27.97;;;25.97;;
2019;SDS011;1014;51.960;8.542;2023-07-09T06:53:10;27.20;;;25.40;;
2019;SDS011;1014;51.960;8.542;2023-07-09T06:55:37;28.40;;;26.30;;
2019;SDS011;1014;51.960;8.542;2023-07-09T06:58:04;26.93;;;24.73;;
2019;SDS011;1014;51.960;8.542;2023-07-09T07:00:32;28.30;;;26.07;;
2019;SDS011;1014;51.960;8.542;2023-07-09T07:02:59;26.00;;;24.10;;
2019;SDS011;1014;51.960;8.542;2023-07-09T07:05:28;27.33;;;25.47;;
2019;SDS011;1014;51.960;8.542;2023-07-09T07:07:56;27.23;;;25.57;;
2019;SDS011;1014;51.960;8.542;2023-07-09T07:10:23;28.67;;;26.87;;
2019;SDS011;1014;51.960;8.542;2023-07-09T07:12:51;27.80;;;26.10;;
2019;SDS011;1014;51.960;8.542;2023-07-09T07:15:19;28.17;;;26.17;;
2019;SDS011;1014;51.960;8.542;2023-07-09T07:17:46;28.67;;;26.77;;
2019;SDS011;1014;51.960;8.542;2023-07-09T07:20:13;27.00;;;25.20;;
2019;SDS011;1014;51.960;8.542;2023-07-09T07:22:42;28.57;;;26.77;;
2019;SDS011;1014;51.960;8.542;2023-07-09T07:25:09;28.27;;;26.07;;
2019;SDS011;1014;51.960;8.542;2023-07-09T07:27:36;27.50;;;25.80;;
2019;SDS011;1014;51.960;8.542;2023-07-09T07:30:04;28.43;;;26.73;;
2019;SDS011;1014;51.960;8.542;2023-07-09T07:32:33;28.47;;;26.47;;
2019;SDS011;1014;51.960;8.542;2023-07-09T07:35:00;28.37;;;26.53;;
2019;SDS011;1014;51.960;8.542;2023-07-09T07:37:27;27.50;;;25.77;;
2019;SDS011;1014;51.960;8.542;2023-07-09T07:39:56;27.57;;;25.87;;
2019;SDS011;1014;51.960;8.542;2023-07-09T07:42:23;26.40;;;24.70;;
2019;SDS011;1014;51.960;8.542;2023-07-09T07:44:50;27.50;;;25.80;;
2019;SDS011;1014;51.960;8.542;2023-07-09T07:47:17;27.40;;;25.50;;
2019;SDS011;1014;51.960;8.542;2023-07-09T07:49:44;27.40;;;25.50;;
2019;SDS011;1014;51.960;8.542;2023-07-09T07:52:11;26.90;;;24.93;;
2019;SDS011;1014;51.960;8.542;2023-07-09T07:54:38;27.43;;;25.53;;
2019;SDS011;1014;51.960;8.542;2023-07-09T07:57:07;27.70;;;25.60;;
2019;SDS011;1014;51.960;8.542;2023-07-09T07:59:35;27.90;;;26.10;;
2019;SDS011;1014;51.960;8.542;2023-07-09T08:02:03;27.10;;;25.20;;
2019;SDS011;1014;51.960;8.542;2023-07-09T08:04:30;27.50;;;25.53;;
2019;SDS011;1014;51.960;8.542;2023-07-09T08:06:57;28.77;;;26.73;;
2019;SDS011;1014;51.960;8.542;2023-07-09T08:09:24;28.03;;;26.07;;
2019;SDS011;1014;51.960;8.542;2023-07-09T08:11:51;27.43;;;25.53;;
2019;SDS011;1014;51.960;8.542;2023-07-09T08:14:20;29.57;;;27.67;;
2019;SDS011;1014;51.960;8.542;2023-07-09T08:16:47;27.00;;;25.17;;
2019;SDS011;1014;51.960;8.542;2023-07-09T08:21:42;26.80;;;25.00;;
2019;SDS011;1014;51.960;8.542;2023-07-09T08:24:10;26.73;;;25.00;;
2019;SDS011;1014;51.960;8.542;2023-07-09T08:26:37;27.57;;;25.67;;
2019;SDS011;1014;51.960;8.542;2023-07-09T08:29:04;25.83;;;24.03;;
2019;SDS011;1014;51.960;8.542;2023-07-09T08:31:32;26.53;;;24.73;;
2019;SDS011;1014;51.960;8.542;2023-07-09T08:33:59;25.93;;;24.13;;
2019;SDS011;1014;51.960;8.542;2023-07-09T08:36:26;26.03;;;24.23;;
2019;SDS011;1014;51.960;8.542;2023-07-09T08:38:53;26.90;;;25.00;;
2019;SDS011;1014;51.960;8.542;2023-07-09T08:41:25;27.10;;;25.13;;
2019;SDS011;1014;51.960;8.542;2023-07-09T08:43:57;27.07;;;25.13;;
2019;SDS011;1014;51.960;8.542;2023-07-09T08:46:28;27.00;;;25.03;;
2019;SDS011;1014;51.960;8.542;2023-07-09T08:48:58;27.80;;;25.90;;
2019;SDS011;1014;51.960;8.542;2023-07-09T08:51:28;26.57;;;24.73;;
2019;SDS011;1014;51.960;8.542;2023-07-09T08:53:56;27.47;;;25.47;;
2019;SDS011;1014;51.960;8.542;2023-07-09T08:56:24;27.20;;;25.23;;
2019;SDS011;1014;51.960;8.542;2023-07-09T08:58:52;26.87;;;25.10;;
2019;SDS011;1014;51.960;8.542;2023-07-09T09:01:20;28.87;;;26.30;;
2019;SDS011;1014;51.960;8.542;2023-07-09T09:03:49;27.57;;;25.77;;
2019;SDS011;1014;51.960;8.542;2023-07-09T09:06:19;27.83;;;25.93;;
2019;SDS011;1014;51.960;8.542;2023-07-09T09:08:48;28.17;;;26.07;;
2019;SDS011;1014;51.960;8.542;2023-07-09T09:11:20;27.53;;;25.63;;
2019;SDS011;1014;51.960;8.542;2023-07-09T09:13:48;27.63;;;25.73;;
2019;SDS011;1014;51.960;8.542;2023-07-09T09:16:21;28.87;;;26.57;;
2019;SDS011;1014;51.960;8.542;2023-07-09T09:18:48;28.33;;;26.23;;
2019;SDS011;1014;51.960;8.542;2023-07-09T09:21:20;26.90;;;24.90;;
2019;SDS011;1014;51.960;8.542;2023-07-09T09:23:49;27.07;;;25.23;;
2019;SDS011;1014;51.960;8.542;2023-07-09T09:26:18;27.90;;;25.67;;
2019;SDS011;1014;51.960;8.542;2023-07-09T09:28:48;28.40;;;26.30;;
2019;SDS011;1014;51.960;8.542;2023-07-09T09:31:15;27.63;;;25.73;;
2019;SDS011;1014;51.960;8.542;2023-07-09T09:33:43;27.90;;;25.87;;
2019;SDS011;1014;51.960;8.542;2023-07-09T09:36:12;28.30;;;26.07;;
2019;SDS011;1014;51.960;8.542;2023-07-09T09:38:42;27.60;;;25.80;;
2019;SDS011;1014;51.960;8.542;2023-07-09T09:41:12;27.57;;;25.43;;
2019;SDS011;1014;51.960;8.542;2023-07-09T09:43:41;28.07;;;25.90;;
2019;SDS011;1014;51.960;8.542;2023-07-09T09:46:09;28.43;;;26.17;;
2019;SDS011;1014;51.960;8.542;2023-07-09T09:48:36;27.23;;;25.13;;
2019;SDS011;1014;51.960;8.542;2023-07-09T09:51:03;29.13;;;26.93;;
2019;SDS011;1014;51.960;8.542;2023-07-09T09:53:34;28.63;;;26.43;;
2019;SDS011;1014;51.960;8.542;2023-07-09T09:56:06;28.43;;;26.43;;
2019;SDS011;1014;51.960;8.542;2023-07-09T09:58:34;28.07;;;26.17;;
2019;SDS011;1014;51.960;8.542;2023-07-09T10:01:01;27.43;;;25.23;;
2019;SDS011;1014;51.960;8.542;2023-07-09T10:03:34;27.47;;;25.57;;
2019;SDS011;1014;51.960;8.542;2023-07-09T10:06:03;28.40;;;26.30;;
2019;SDS011;1014;51.960;8.542;2023-07-09T10:08:34;27.77;;;25.97;;
2019;SDS011;1014;51.960;8.542;2023-07-09T10:11:10;27.90;;;25.87;;
2019;SDS011;1014;51.960;8.542;2023-07-09T10:13:39;28.43;;;26.27;;
2019;SDS011;1014;51.960;8.542;2023-07-09T10:16:07;28.30;;;26.50;;
2019;SDS011;1014;51.960;8.542;2023-07-09T10:18:39;28.30;;;26.43;;
2019;SDS011;1014;51.960;8.542;2023-07-09T10:21:10;28.67;;;26.67;;
2019;SDS011;1014;51.960;8.542;2023-07-09T10:23:39;28.77;;;26.87;;
2019;SDS011;1014;51.960;8.542;2023-07-09T10:26:11;28.90;;;26.80;;
2019;SDS011;1014;51.960;8.542;2023-07-09T10:28:45;28.27;;;26.47;;
2019;SDS011;1014;51.960;8.542;2023-07-09T10:31:23;28.27;;;26.37;;
2019;SDS011;1014;51.960;8.542;2023-07-09T10:33:55;29.07;;;26.63;;
2019;SDS011;1014;51.960;8.542;2023-07-09T10:36:26;28.17;;;26.27;;
2019;SDS011;1014;51.960;8.542;2023-07-09T10:38:58;27.47;;;25.70;;
2019;SDS011;1014;51.960;8.542;2023-07-09T10:41:27;28.40;;;26.50;;
2019;SDS011;1014;51.960;8.542;2023-07-09T10:43:56;27.43;;;25.60;;
2019;SDS011;1014;51.960;8.542;2023-07-09T10:46:26;28.40;;;26.60;;
2019;SDS011;1014;51.960;8.542;2023-07-09T10:48:55;28.67;;;26.87;;
2019;SDS011;1014;51.960;8.542;2023-07-09T10:51:24;28.60;;;26.70;;
2019;SDS011;1014;51.960;8.542;2023-07-09T10:53:55;28.83;;;27.00;;
2019;SDS011;1014;51.960;8.542;2023-07-09T10:56:24;29.10;;;27.10;;
2019;SDS011;1014;51.960;8.542;2023-07-09T10:58:55;29.73;;;27.63;;
2019;SDS011;1014;51.960;8.542;2023-07-09T11:01:27;29.40;;;26.97;;
2019;SDS011;1014;51.960;8.542;2023-07-09T11:03:56;29.27;;;27.13;;
2019;SDS011;1014;51.960;8.542;2023-07-09T11:06:28;29.50;;;27.50;;
2019;SDS011;1014;51.960;8.542;2023-07-09T11:08:57;29.20;;;27.30;;
2019;SDS011;1014;51.960;8.542;2023-07-09T11:11:30;28.27;;;26.37;;
2019;SDS011;1014;51.960;8.542;2023-07-09T11:13:59;31.23;;;28.67;;
2019;SDS011;1014;51.960;8.542;2023-07-09T11:16:32;29.50;;;27.60;;
2019;SDS011;1014;51.960;8.542;2023-07-09T11:19:00;29.03;;;27.13;;
2019;SDS011;1014;51.960;8.542;2023-07-09T11:21:29;29.50;;;27.30;;
2019;SDS011;1014;51.960;8.542;2023-07-09T11:23:56;30.00;;;27.67;;
2019;SDS011;1014;51.960;8.542;2023-07-09T11:26:25;30.10;;;27.80;;
2019;SDS011;1014;51.960;8.542;2023-07-09T11:28:54;28.67;;;26.60;;
2019;SDS011;1014;51.960;8.542;2023-07-09T11:31:23;29.10;;;27.00;;
2019;SDS011;1014;51.960;8.542;2023-07-09T11:33:59;28.97;;;26.93;;
2019;SDS011;1014;51.960;8.542;2023-07-09T11:36:27;28.47;;;26.57;;
2019;SDS011;1014;51.960;8.542;2023-07-09T11:38:54;28.13;;;26.30;;
2019;SDS011;1014;51.960;8.542;2023-07-09T11:41:24;30.13;;;28.03;;
2019;SDS011;1014;51.960;8.542;2023-07-09T11:43:52;28.03;;;26.03;;
2019;SDS011;1014;51.960;8.542;2023-07-09T11:46:20;28.20;;;26.40;;
2019;SDS011;1014;51.960;8.542;2023-07-09T11:48:50;28.57;;;26.57;;
2019;SDS011;1014;51.960;8.542;2023-07-09T11:51:23;26.70;;;25.03;;
2019;SDS011;1014;51.960;8.542;2023-07-09T11:53:52;27.90;;;25.80;;
2019;SDS011;1014;51.960;8.542;2023-07-09T11:56:19;27.90;;;25.83;;
2019;SDS011;1014;51.960;8.542;2023-07-09T11:58:50;28.70;;;26.13;;
2019;SDS011;1014;51.960;8.542;2023-07-09T12:01:18;28.43;;;26.33;;
2019;SDS011;1014;51.960;8.542;2023-07-09T12:03:45;29.33;;;26.97;;
2019;SDS011;1014;51.960;8.542;2023-07-09T12:06:17;29.90;;;27.80;;
2019;SDS011;1014;51.960;8.542;2023-07-09T12:08:45;28.40;;;26.30;;
2019;SDS011;1014;51.960;8.542;2023-07-09T12:11:19;28.73;;;26.73;;
2019;SDS011;1014;51.960;8.542;2023-07-09T12:13:47;27.90;;;25.80;;
2019;SDS011;1014;51.960;8.542;2023-07-09T12:16:19;28.87;;;26.87;;
2019;SDS011;1014;51.960;8.542;2023-07-09T12:18:46;27.90;;;26.10;;
2019;SDS011;1014;51.960;8.542;2023-07-09T12:21:13;28.33;;;26.30;;
2019;SDS011;1014;51.960;8.542;2023-07-09T12:23:42;29.97;;;27.97;;
2019;SDS011;1014;51.960;8.542;2023-07-09T12:26:10;28.07;;;26.17;;
2019;SDS011;1014;51.960;8.542;2023-07-09T12:28:38;28.60;;;26.73;;
2019;SDS011;1014;51.960;8.542;2023-07-09T12:31:10;28.00;;;26.20;;
2019;SDS011;1014;51.960;8.542;2023-07-09T12:33:38;28.33;;;26.33;;
2019;SDS011;1014;51.960;8.542;2023-07-09T12:36:05;26.90;;;24.93;;
2019;SDS011;1014;51.960;8.542;2023-07-09T12:38:38;27.47;;;25.37;;
2019;SDS011;1014;51.960;8.542;2023-07-09T12:41:09;25.93;;;24.20;;
2019;SDS011;1014;51.960;8.542;2023-07-09T12:43:42;27.10;;;25.30;;
2019;SDS011;1014;51.960;8.542;2023-07-09T12:46:09;29.63;;;26.70;;
2019;SDS011;1014;51.960;8.542;2023-07-09T12:48:37;27.93;;;26.03;;
2019;SDS011;1014;51.960;8.542;2023-07-09T12:51:06;28.27;;;26.10;;
2019;SDS011;1014;51.960;8.542;2023-07-09T12:53:35;28.33;;;26.33;;
2019;SDS011;1014;51.960;8.542;2023-07-09T12:56:03;28.43;;;26.37;;
2019;SDS011;1014;51.960;8.542;2023-07-09T12:58:39;27.70;;;25.90;;
2019;SDS011;1014;51.960;8.542;2023-07-09T13:01:07;27.47;;;25.57;;
2019;SDS011;1014;51.960;8.542;2023-07-09T13:03:35;28.10;;;26.10;;
2019;SDS011;1014;51.960;8.542;2023-07-09T13:06:02;28.17;;;26.07;;
2019;SDS011;1014;51.960;8.542;2023-07-09T13:08:30;27.77;;;25.87;;
2019;SDS011;1014;51.960;8.542;2023-07-09T13:10:59;28.27;;;26.27;;
2019;SDS011;1014;51.960;8.542;2023-07-09T13:13:26;27.67;;;25.93;;
2019;SDS011;1014;51.960;8.542;2023-07-09T13:15:56;29.80;;;27.50;;
2019;SDS011;1014;51.960;8.542;2023-07-09T13:18:25;27.57;;;25.70;;
2019;SDS011;1014;51.960;8.542;2023-07-09T13:20:53;29.77;;;27.87;;
2019;SDS011;1014;51.960;8.542;2023-07-09T13:23:22;28.00;;;26.00;;
2019;SDS011;1014;51.960;8.542;2023-07-09T13:25:50;28.97;;;26.80;;
2019;SDS011;1014;51.960;8.542;2023-07-09T13:28:20;27.93;;;26.13;;
2019;SDS011;1014;51.960;8.542;2023-07-09T13:30:48;27.90;;;26.03;;
2019;SDS011;1014;51.960;8.542;2023-07-09T13:33:18;27.10;;;25.40;;
2019;SDS011;1014;51.960;8.542;2023-07-09T13:35:45;29.07;;;26.90;;
2019;SDS011;1014;51.960;8.542;2023-07-09T13:38:13;28.37;;;26.53;;
2019;SDS011;1014;51.960;8.542;2023-07-09T13:40:41;29.10;;;27.10;;
2019;SDS011;1014;51.960;8.542;2023-07-09T13:43:11;29.37;;;27.40;;
2019;SDS011;1014;51.960;8.542;2023-07-09T13:45:38;29.57;;;27.67;;
2019;SDS011;1014;51.960;8.542;2023-07-09T13:48:08;29.93;;;27.93;;
2019;SDS011;1014;51.960;8.542;2023-07-09T13:50:38;28.97;;;26.97;;
2019;SDS011;1014;51.960;8.542;2023-07-09T13:53:05;29.17;;;27.20;;
2019;SDS011;1014;51.960;8.542;2023-07-09T13:55:36;28.37;;;26.47;;
2019;SDS011;1014;51.960;8.542;2023-07-09T13:58:03;30.73;;;28.53;;
2019;SDS011;1014;51.960;8.542;2023-07-09T14:00:30;29.90;;;27.73;;
2019;SDS011;1014;51.960;8.542;2023-07-09T14:02:57;29.97;;;27.87;;
2019;SDS011;1014;51.960;8.542;2023-07-09T14:05:24;29.60;;;27.50;;
2019;SDS011;1014;51.960;8.542;2023-07-09T14:07:54;29.10;;;26.90;;
2019;SDS011;1014;51.960;8.542;2023-07-09T14:10:21;28.90;;;27.00;;
2019;SDS011;1014;51.960;8.542;2023-07-09T14:12:48;28.63;;;26.70;;
2019;SDS011;1014;51.960;8.542;2023-07-09T14:15:16;29.53;;;27.40;;
2019;SDS011;1014;51.960;8.542;2023-07-09T14:17:43;28.17;;;26.27;;
2019;SDS011;1014;51.960;8.542;2023-07-09T14:20:12;29.57;;;27.07;;
2019;SDS011;1014;51.960;8.542;2023-07-09T14:22:40;27.97;;;26.17;;
2019;SDS011;1014;51.960;8.542;2023-07-09T14:25:14;30.40;;;28.47;;
2019;SDS011;1014;51.960;8.542;2023-07-09T14:27:41;29.67;;;27.70;;
2019;SDS011;1014;51.960;8.542;2023-07-09T14:30:09;29.23;;;27.33;;
2019;SDS011;1014;51.960;8.542;2023-07-09T14:32:40;28.83;;;27.03;;
2019;SDS011;1014;51.960;8.542;2023-07-09T14:35:10;29.10;;;27.27;;
2019;SDS011;1014;51.960;8.542;2023-07-09T14:37:37;28.60;;;26.70;;
2019;SDS011;1014;51.960;8.542;2023-07-09T14:40:04;28.73;;;26.83;;
2019;SDS011;1014;51.960;8.542;2023-07-09T14:42:32;27.83;;;26.03;;
2019;SDS011;1014;51.960;8.542;2023-07-09T14:45:00;27.57;;;25.67;;
2019;SDS011;1014;51.960;8.542;2023-07-09T14:47:27;27.63;;;25.73;;
2019;SDS011;1014;51.960;8.542;2023-07-09T14:49:54;27.97;;;26.17;;
2019;SDS011;1014;51.960;8.542;2023-07-09T14:52:21;27.97;;;26.00;;
2019;SDS011;1014;51.960;8.542;2023-07-09T14:54:48;27.60;;;25.90;;
2019;SDS011;1014;51.960;8.542;2023-07-09T14:57:19;28.10;;;26.20;;